Aérodrome :
LOGIN :

S'inscrire | Disclaimer

   EN    FR    IT 

 










Légende :    VFR   VFR Marginal   IFR   IFR Intensif   IFR Très Intensif
Visi : 
Plafond : 
>= 8 km
>= 3000ft
5 à 8 km
1000 à 3000 ft
1500m à 5 km
500 à 1000 ft
800 à 1500m
200 à 500 ft
< 800m
< 200 ft
Symboles :   Orages  Brouillard  Fortes neiges  Fortes précipitations  Vent > 20 kt
SIGMETs :   Divers  Orages  Givrage  Turbulence  Onde Orograph.  Cendres Volcan.






- Altitude de l'aérodrome : 616 ft
- Code IATA : PUF


LFBP - Pau

DERNIER METAR :
  • 130700Z AUTO 26008KT 9999 FEW090 19/17 Q1023 TEMPO 4000 MIFG

METARs EXPIRÉS :
  • 130630Z AUTO 26005KT 220V290 9999 BKN086 19/17 Q1023 TEMPO 4000 MIFG
  • 130600Z AUTO 23003KT 9999 BKN086 18/17 Q1023 TEMPO 4000 MIFG
  • 130530Z AUTO 20003KT 9999 BKN086 17/16 Q1022 TEMPO 4000 MIFG
  • 130500Z AUTO 17003KT 9999 SCT086 17/16 Q1022 TEMPO BKN014
  • 130430Z AUTO 19002KT 9999 SCT090 17/16 Q1022 TEMPO BKN014

TAF TAF LFBP
Valide du 13 à 06h jusqu'au 14 à 06h UTC


130500Z 1306/1406 VRB02KT 9999 SCT080
PROB30
TEMPO 1306/1309 4000 MIFG
BECMG 1313/1315 30010KT
PROB30
TEMPO 1321/1406 VRB02KT 3000 BR BKN006



MET'MAP, la Météo Aéronautique d'un coup d'oeil ! - Copyright ORBIFLY Décembre 2007 - Disclaimer

ORBIFLY MET'MAP TEAM :

Programmation & Développement : Alexandra Zaïnal
Sur une idée originale de : Baudouin d'Aumeries
Assistance à la programmation : Marc-Olivier Méhu
Soutien technique & logistique : Manuel Goepfert

Contact : metmap@orbifly.com




SOURCES & CREDITS :

   NOAA